createdAt,value
2022-07-26T00:00:55.222Z,100394.23
2022-07-26T00:03:22.383Z,100394.48
2022-07-26T00:05:49.496Z,100391.64
2022-07-26T00:08:16.697Z,100386.27
2022-07-26T00:10:49.226Z,100387.86
2022-07-26T00:13:18.547Z,100386.33
2022-07-26T00:15:46.594Z,100390.46
2022-07-26T00:18:14.504Z,100386.15
2022-07-26T00:20:42.103Z,100385.17
2022-07-26T00:23:09.548Z,100385.58
2022-07-26T00:25:37.199Z,100381.39
2022-07-26T00:28:04.986Z,100381.98
2022-07-26T00:30:32.357Z,100380.92
2022-07-26T00:32:59.167Z,100384.02
2022-07-26T00:35:26.330Z,100384.78
2022-07-26T00:37:53.504Z,100382.89
2022-07-26T00:40:20.770Z,100386.53
2022-07-26T00:42:47.923Z,100396.06
2022-07-26T00:45:15.747Z,100399.36
2022-07-26T00:47:43.044Z,100396.30
2022-07-26T00:50:12.849Z,100396.48
2022-07-26T00:52:42.426Z,100394.38
2022-07-26T00:55:09.979Z,100393.16
2022-07-26T00:57:38.078Z,100394.45
2022-07-26T01:00:11.975Z,100391.65
2022-07-26T01:02:39.611Z,100393.22
2022-07-26T01:05:07.770Z,100389.55
2022-07-26T01:07:35.085Z,100391.59
2022-07-26T01:10:04.624Z,100391.80
2022-07-26T01:12:31.442Z,100391.77
2022-07-26T01:14:58.580Z,100393.46
2022-07-26T01:17:25.394Z,100394.40
2022-07-26T01:19:52.465Z,100396.85
2022-07-26T01:22:19.369Z,100398.95
2022-07-26T01:24:46.586Z,100395.80
2022-07-26T01:27:13.674Z,100395.25
2022-07-26T01:29:40.626Z,100398.67
2022-07-26T01:32:08.543Z,100403.19
2022-07-26T01:34:35.616Z,100405.10
2022-07-26T01:37:03.442Z,100404.27
2022-07-26T01:39:30.576Z,100406.09
2022-07-26T01:41:57.677Z,100407.09
2022-07-26T01:44:24.678Z,100409.36
2022-07-26T01:46:51.575Z,100407.73
2022-07-26T01:49:18.635Z,100407.61
2022-07-26T01:51:45.616Z,100405.17
2022-07-26T01:54:12.920Z,100407.51
2022-07-26T01:56:39.984Z,100409.42
2022-07-26T01:59:07.690Z,100409.73
2022-07-26T02:01:39.255Z,100411.26
2022-07-26T02:04:08.616Z,100408.42
2022-07-26T02:06:37.303Z,100411.60
2022-07-26T02:09:07.643Z,100414.47
2022-07-26T02:11:38.742Z,100412.64
2022-07-26T02:14:06.048Z,100414.06
2022-07-26T02:16:33.351Z,100422.55
2022-07-26T02:19:00.782Z,100422.42
2022-07-26T02:21:28.392Z,100426.92
2022-07-26T02:23:55.419Z,100428.17
2022-07-26T02:26:22.725Z,100431.05
2022-07-26T02:28:49.745Z,100433.14
2022-07-26T02:31:16.837Z,100440.33
2022-07-26T02:33:44.166Z,100443.18
2022-07-26T02:36:11.560Z,100438.19
2022-07-26T02:38:38.630Z,100437.63
2022-07-26T02:41:09.088Z,100439.75
2022-07-26T02:43:36.293Z,100444.32
2022-07-26T02:46:06.562Z,100447.73
2022-07-26T02:48:33.503Z,100446.77
2022-07-26T02:51:00.737Z,100445.45
2022-07-26T02:53:28.163Z,100447.00
2022-07-26T02:55:55.217Z,100449.69
2022-07-26T02:58:22.638Z,100448.73
2022-07-26T03:00:49.551Z,100449.64
2022-07-26T03:03:16.669Z,100448.86
2022-07-26T03:05:43.486Z,100452.27
2022-07-26T03:08:10.920Z,100455.55
2022-07-26T03:10:37.908Z,100452.25
2022-07-26T03:13:04.866Z,100450.03
2022-07-26T03:15:31.937Z,100451.70
2022-07-26T03:17:59.225Z,100451.31
2022-07-26T03:20:26.075Z,100453.68
2022-07-26T03:22:53.119Z,100453.58
2022-07-26T03:25:20.300Z,100455.86
2022-07-26T03:27:47.028Z,100457.17
2022-07-26T03:30:14.903Z,100456.75
2022-07-26T03:32:42.018Z,100454.73
2022-07-26T03:35:09.422Z,100455.94
2022-07-26T03:37:45.106Z,100459.73
2022-07-26T03:40:15.175Z,100460.77
2022-07-26T03:42:42.503Z,100459.36
2022-07-26T03:45:10.078Z,100458.69
2022-07-26T03:47:37.469Z,100459.20
2022-07-26T03:50:06.114Z,100464.79
2022-07-26T03:52:33.279Z,100459.51
2022-07-26T03:55:00.385Z,100457.19
2022-07-26T03:57:28.322Z,100458.32
2022-07-26T03:59:55.943Z,100456.48
2022-07-26T04:02:23.227Z,100464.23
2022-07-26T04:04:50.327Z,100464.03
2022-07-26T04:07:17.070Z,100471.30
2022-07-26T04:09:44.280Z,100468.29
2022-07-26T04:12:11.610Z,100472.73
2022-07-26T04:14:42.470Z,100464.25
2022-07-26T04:17:09.603Z,100463.80
2022-07-26T04:19:37.457Z,100465.52
2022-07-26T04:22:06.857Z,100466.55
2022-07-26T04:24:33.909Z,100467.14
2022-07-26T04:27:01.081Z,100457.17
2022-07-26T04:29:28.339Z,100460.77
2022-07-26T04:31:55.656Z,100459.10
2022-07-26T04:34:22.523Z,100464.00
2022-07-26T04:36:49.521Z,100462.44
2022-07-26T04:39:16.648Z,100462.89
2022-07-26T04:41:43.458Z,100460.79
2022-07-26T04:44:11.010Z,100460.37
2022-07-26T04:46:38.624Z,100462.52
2022-07-26T04:49:13.826Z,100461.50
2022-07-26T04:51:41.125Z,100464.52
2022-07-26T04:54:08.397Z,100465.89
2022-07-26T04:56:35.584Z,100466.48
2022-07-26T04:59:02.307Z,100467.23
2022-07-26T05:01:29.531Z,100463.06
2022-07-26T05:03:56.309Z,100469.64
2022-07-26T05:06:26.546Z,100467.11
2022-07-26T05:08:59.492Z,100467.25
2022-07-26T05:11:38.097Z,100467.94
2022-07-26T05:14:05.484Z,100470.86
2022-07-26T05:16:32.971Z,100470.53
2022-07-26T05:19:00.500Z,100471.11
2022-07-26T05:21:28.093Z,100474.88
2022-07-26T05:23:55.696Z,100477.62
2022-07-26T05:26:23.279Z,100471.50
2022-07-26T05:28:49.775Z,100469.79
2022-07-26T05:31:16.849Z,100470.73
2022-07-26T05:33:44.202Z,100471.90
2022-07-26T05:36:12.330Z,100472.85
2022-07-26T05:38:39.415Z,100473.20
2022-07-26T05:41:07.175Z,100472.07
2022-07-26T05:43:40.742Z,100469.42
2022-07-26T05:46:09.923Z,100470.99
2022-07-26T05:48:37.778Z,100474.25
2022-07-26T05:51:08.372Z,100476.35
2022-07-26T05:53:35.328Z,100473.67
2022-07-26T05:56:05.152Z,100470.83
2022-07-26T05:58:32.710Z,100477.58
2022-07-26T06:01:00.045Z,100483.92
2022-07-26T06:03:26.975Z,100487.74
2022-07-26T06:05:56.780Z,100481.31
2022-07-26T06:08:25.458Z,100484.44
2022-07-26T06:10:53.199Z,100484.15
2022-07-26T06:13:20.169Z,100496.36
2022-07-26T06:15:47.645Z,100501.95
2022-07-26T06:18:15.368Z,100499.81
2022-07-26T06:20:43.557Z,100498.67
2022-07-26T06:23:10.622Z,100497.36
2022-07-26T06:25:38.031Z,100498.36
2022-07-26T06:28:09.501Z,100504.06
2022-07-26T06:30:37.494Z,100504.38
2022-07-26T06:33:04.794Z,100511.69
2022-07-26T06:35:32.909Z,100502.61
2022-07-26T06:37:59.991Z,100505.84
2022-07-26T06:40:26.888Z,100503.92
2022-07-26T06:42:53.944Z,100506.02
2022-07-26T06:45:20.853Z,100503.29
2022-07-26T06:47:47.583Z,100506.09
2022-07-26T06:50:14.337Z,100505.27
2022-07-26T06:52:43.912Z,100508.60
2022-07-26T06:55:15.298Z,100506.33
2022-07-26T06:57:45.059Z,100504.16
2022-07-26T07:00:17.704Z,100507.42
2022-07-26T07:02:44.981Z,100505.44
2022-07-26T07:05:12.508Z,100504.08
2022-07-26T07:07:39.700Z,100506.68
2022-07-26T07:10:10.113Z,100505.23
2022-07-26T07:12:38.099Z,100508.95
2022-07-26T07:15:05.307Z,100512.11
2022-07-26T07:17:32.026Z,100513.54
2022-07-26T07:20:00.494Z,100517.60
2022-07-26T07:22:27.460Z,100517.48
2022-07-26T07:24:54.616Z,100513.85
2022-07-26T07:27:21.258Z,100513.44
2022-07-26T07:29:48.025Z,100511.96
2022-07-26T07:32:18.130Z,100517.46
2022-07-26T07:34:47.653Z,100517.58
2022-07-26T07:37:15.177Z,100527.48
2022-07-26T07:39:42.582Z,100524.85
2022-07-26T07:42:09.291Z,100520.48
2022-07-26T07:44:36.398Z,100515.57
2022-07-26T07:47:03.541Z,100509.71
2022-07-26T07:49:30.660Z,100505.13
2022-07-26T07:51:57.390Z,100509.29
2022-07-26T07:54:23.951Z,100515.77
2022-07-26T07:56:53.069Z,100515.42
2022-07-26T07:59:20.188Z,100516.75
2022-07-26T08:01:50.038Z,100518.54
2022-07-26T08:04:17.340Z,100528.94
2022-07-26T08:06:50.982Z,100525.13
2022-07-26T08:09:19.102Z,100531.34
2022-07-26T08:11:50.998Z,100528.33
2022-07-26T08:14:18.653Z,100531.09
2022-07-26T08:16:45.643Z,100538.33
2022-07-26T08:19:13.594Z,100529.04
2022-07-26T08:21:43.146Z,100526.81
2022-07-26T08:24:10.782Z,100528.48
2022-07-26T08:26:38.005Z,100526.23
2022-07-26T08:29:04.624Z,100517.16
2022-07-26T08:31:31.456Z,100519.70
2022-07-26T08:33:58.513Z,100525.45
2022-07-26T08:36:31.816Z,100522.76
2022-07-26T08:38:59.765Z,100531.60
2022-07-26T08:41:26.818Z,100548.32
2022-07-26T08:43:54.014Z,100573.39
2022-07-26T08:46:27.778Z,100588.34
2022-07-26T08:48:58.001Z,100588.36
2022-07-26T08:51:26.845Z,100596.55
2022-07-26T08:54:04.917Z,100603.89
2022-07-26T08:56:37.101Z,100625.77
2022-07-26T08:59:19.494Z,100625.35
2022-07-26T09:01:51.040Z,100631.08
2022-07-26T09:04:31.026Z,100638.69
2022-07-26T09:07:17.847Z,100642.70
2022-07-26T09:09:58.971Z,100645.52
2022-07-26T09:12:27.310Z,100651.47
2022-07-26T09:14:55.071Z,100648.41
2022-07-26T09:17:23.856Z,100659.19
2022-07-26T09:20:29.557Z,100663.64
2022-07-26T09:22:57.978Z,100662.17
2022-07-26T09:25:26.192Z,100663.05
2022-07-26T09:27:53.958Z,100665.39
2022-07-26T09:30:21.057Z,100668.75
2022-07-26T09:32:59.392Z,100670.88
2022-07-26T09:38:15.191Z,100677.14
2022-07-26T09:40:42.491Z,100681.79
2022-07-26T09:43:16.425Z,100683.35
2022-07-26T09:46:06.359Z,100693.05
2022-07-26T09:48:59.483Z,100695.64
2022-07-26T09:51:41.467Z,100707.16
2022-07-26T09:54:10.430Z,100703.98
2022-07-26T09:56:46.615Z,100704.02
2022-07-26T09:59:19.016Z,100706.31
2022-07-26T10:01:46.915Z,100707.59
2022-07-26T10:04:14.852Z,100702.60
2022-07-26T10:06:42.971Z,100698.35
2022-07-26T10:09:10.955Z,100696.13
2022-07-26T10:11:44.654Z,100699.17
2022-07-26T10:14:33.489Z,100700.09
2022-07-26T10:17:01.723Z,100700.87
2022-07-26T10:19:45.548Z,100703.36
2022-07-26T10:22:40.891Z,100702.88
2022-07-26T10:25:19.959Z,100718.90
2022-07-26T10:27:52.406Z,100729.17
2022-07-26T10:30:19.249Z,100736.35
2022-07-26T10:32:54.862Z,100734.47
2022-07-26T10:35:44.799Z,100736.02
2022-07-26T10:38:21.632Z,100735.71
2022-07-26T10:41:10.064Z,100739.10
2022-07-26T10:43:41.824Z,100742.11
2022-07-26T10:46:24.901Z,100740.54
2022-07-26T10:49:08.491Z,100748.77
2022-07-26T10:51:40.571Z,100753.89
2022-07-26T10:54:11.016Z,100757.23
2022-07-26T10:56:38.560Z,100758.83
2022-07-26T10:59:06.131Z,100762.58
2022-07-26T11:01:35.076Z,100763.50
2022-07-26T11:04:02.319Z,100770.64
2022-07-26T11:06:30.561Z,100775.93
2022-07-26T11:08:57.448Z,100777.41
2022-07-26T11:11:33.948Z,100770.77
2022-07-26T11:14:26.892Z,100775.73
2022-07-26T11:16:55.120Z,100773.63
2022-07-26T11:19:24.818Z,100777.06
2022-07-26T11:22:00.979Z,100774.57
2022-07-26T11:24:30.009Z,100776.98
2022-07-26T11:27:03.321Z,100774.78
2022-07-26T11:29:35.706Z,100771.41
2022-07-26T11:32:13.012Z,100768.14
2022-07-26T11:34:45.276Z,100773.59
2022-07-26T11:37:12.408Z,100775.63
2022-07-26T11:39:40.119Z,100780.35
2022-07-26T11:42:09.454Z,100780.92
2022-07-26T11:44:36.353Z,100779.89
2022-07-26T11:47:38.596Z,100775.73
2022-07-26T11:50:18.668Z,100779.08
2022-07-26T11:52:49.664Z,100779.48
2022-07-26T11:55:25.797Z,100784.02
2022-07-26T11:57:52.809Z,100778.83
2022-07-26T12:00:19.839Z,100781.47
2022-07-26T12:02:46.489Z,100780.70
2022-07-26T12:05:15.057Z,100777.02
2022-07-26T12:07:55.941Z,100784.98
2022-07-26T12:10:23.292Z,100788.70
2022-07-26T12:12:50.297Z,100783.64
2022-07-26T12:15:17.049Z,100779.63
2022-07-26T12:17:59.790Z,100775.28
2022-07-26T12:20:29.520Z,100772.66
2022-07-26T12:23:06.179Z,100777.40
2022-07-26T12:25:33.706Z,100781.02
2022-07-26T12:28:03.103Z,100776.36
2022-07-26T12:30:36.013Z,100776.74
2022-07-26T12:33:02.835Z,100782.96
2022-07-26T12:35:33.550Z,100784.90
2022-07-26T12:38:00.394Z,100780.10
2022-07-26T12:40:29.464Z,100794.35
2022-07-26T12:43:02.193Z,100794.17
2022-07-26T12:45:34.407Z,100794.07
2022-07-26T12:48:03.189Z,100800.05
2022-07-26T12:50:32.785Z,100797.82
2022-07-26T12:53:01.760Z,100795.44
2022-07-26T12:55:28.712Z,100797.52
2022-07-26T12:57:55.815Z,100794.95
2022-07-26T13:00:24.429Z,100797.32
2022-07-26T13:02:52.872Z,100798.43
2022-07-26T13:05:20.016Z,100791.75
2022-07-26T13:07:47.462Z,100793.42
2022-07-26T13:10:32.370Z,100788.95
2022-07-26T13:13:00.651Z,100791.02
2022-07-26T13:15:36.196Z,100789.44
2022-07-26T13:18:09.132Z,100796.96
2022-07-26T13:20:39.521Z,100793.20
2022-07-26T13:23:11.626Z,100791.63
2022-07-26T13:25:40.810Z,100793.16
2022-07-26T13:28:08.584Z,100794.91
2022-07-26T13:30:38.288Z,100792.00
2022-07-26T13:33:05.263Z,100795.25
2022-07-26T13:35:32.105Z,100791.77
2022-07-26T13:37:58.769Z,100798.55
2022-07-26T13:40:31.051Z,100804.61
2022-07-26T13:42:58.224Z,100808.15
2022-07-26T13:45:25.006Z,100817.05
2022-07-26T13:47:56.347Z,100814.80
2022-07-26T13:50:23.091Z,100816.21
2022-07-26T13:52:49.856Z,100823.11
2022-07-26T13:55:16.948Z,100822.61
2022-07-26T13:57:55.653Z,100824.35
2022-07-26T14:00:23.780Z,100822.20
2022-07-26T14:02:50.518Z,100823.98
2022-07-26T14:05:17.512Z,100823.35
2022-07-26T14:07:44.520Z,100829.55
2022-07-26T14:10:15.509Z,100833.67
2022-07-26T14:12:42.131Z,100833.29
2022-07-26T14:15:16.691Z,100837.88
2022-07-26T14:17:47.279Z,100830.83
2022-07-26T14:20:14.879Z,100836.02
2022-07-26T14:22:41.609Z,100833.81
2022-07-26T14:25:08.578Z,100838.88
2022-07-26T14:27:35.465Z,100834.61
2022-07-26T14:30:02.492Z,100832.66
2022-07-26T14:32:29.860Z,100832.02
2022-07-26T14:34:56.679Z,100831.89
2022-07-26T14:37:41.584Z,100829.98
2022-07-26T14:40:12.278Z,100834.44
2022-07-26T14:42:39.729Z,100842.89
2022-07-26T14:45:07.511Z,100835.81
2022-07-26T14:47:34.316Z,100843.19
2022-07-26T14:50:06.004Z,100849.27
2022-07-26T14:52:33.877Z,100844.21
2022-07-26T14:55:00.993Z,100842.86
2022-07-26T14:57:28.011Z,100843.48
2022-07-26T14:59:54.918Z,100844.11
2022-07-26T15:02:21.914Z,100843.05
2022-07-26T15:04:48.682Z,100854.36
2022-07-26T15:07:15.705Z,100847.46
2022-07-26T15:09:42.746Z,100852.29
2022-07-26T15:12:09.826Z,100853.34
2022-07-26T15:14:37.326Z,100855.95
2022-07-26T15:17:04.183Z,100851.89
2022-07-26T15:19:31.279Z,100845.94
2022-07-26T15:21:59.020Z,100844.26
2022-07-26T15:24:27.102Z,100845.59
2022-07-26T15:26:54.082Z,100846.16
2022-07-26T15:29:20.852Z,100845.04
2022-07-26T15:31:49.235Z,100849.30
2022-07-26T15:34:16.692Z,100846.79
2022-07-26T15:36:43.812Z,100846.27
2022-07-26T15:39:18.434Z,100849.20
2022-07-26T15:41:49.091Z,100852.52
2022-07-26T15:44:17.716Z,100853.69
2022-07-26T15:46:48.548Z,100854.30
2022-07-26T15:49:16.564Z,100856.38
2022-07-26T15:51:44.382Z,100853.30
2022-07-26T15:54:12.627Z,100856.22
2022-07-26T15:56:40.217Z,100855.92
2022-07-26T15:59:10.165Z,100855.08
2022-07-26T16:01:37.322Z,100859.79
2022-07-26T16:04:09.477Z,100865.51
2022-07-26T16:06:36.702Z,100857.38
2022-07-26T16:09:19.975Z,100858.52
2022-07-26T16:11:48.354Z,100864.55
2022-07-26T16:14:16.602Z,100863.97
2022-07-26T16:16:44.154Z,100867.15
2022-07-26T16:19:11.367Z,100868.77
2022-07-26T16:21:39.101Z,100869.81
2022-07-26T16:24:07.838Z,100868.09
2022-07-26T16:26:35.483Z,100873.90
2022-07-26T16:29:02.344Z,100861.73
2022-07-26T16:31:29.623Z,100864.21
2022-07-26T16:33:56.501Z,100869.44
2022-07-26T16:36:23.264Z,100869.70
2022-07-26T16:38:50.210Z,100871.55
2022-07-26T16:41:17.015Z,100876.87
2022-07-26T16:43:44.141Z,100875.83
2022-07-26T16:46:11.105Z,100876.34
2022-07-26T16:48:37.965Z,100875.48
2022-07-26T16:51:07.904Z,100880.45
2022-07-26T16:53:34.638Z,100876.75
2022-07-26T16:56:01.521Z,100874.69
2022-07-26T16:58:28.437Z,100875.09
2022-07-26T17:00:55.121Z,100873.61
2022-07-26T17:03:21.927Z,100878.73
2022-07-26T17:05:48.696Z,100878.19
2022-07-26T17:08:15.648Z,100881.15
2022-07-26T17:10:43.023Z,100885.42
2022-07-26T17:13:10.052Z,100880.98
2022-07-26T17:15:37.147Z,100880.41
2022-07-26T17:18:03.916Z,100879.67
2022-07-26T17:20:30.805Z,100879.30
2022-07-26T17:22:57.695Z,100873.98
2022-07-26T17:25:24.534Z,100868.43
2022-07-26T17:27:51.333Z,100868.81
2022-07-26T17:30:19.574Z,100870.95
2022-07-26T17:32:46.795Z,100866.13
2022-07-26T17:35:13.882Z,100863.17
2022-07-26T17:37:41.041Z,100860.70
2022-07-26T17:40:08.885Z,100866.36
2022-07-26T17:42:36.921Z,100871.82
2022-07-26T17:45:05.599Z,100870.89
2022-07-26T17:47:32.826Z,100873.88
2022-07-26T17:52:48.334Z,100879.19
2022-07-26T17:55:15.280Z,100881.61
2022-07-26T17:57:42.764Z,100882.82
2022-07-26T18:00:10.668Z,100884.77
2022-07-26T18:02:40.700Z,100883.27
2022-07-26T18:05:08.359Z,100883.16
2022-07-26T18:07:36.112Z,100889.48
2022-07-26T18:10:02.880Z,100887.86
2022-07-26T18:12:30.635Z,100893.29
2022-07-26T18:14:57.717Z,100891.89
2022-07-26T18:17:24.732Z,100891.80
2022-07-26T18:19:51.758Z,100893.52
2022-07-26T18:22:18.286Z,100894.54
2022-07-26T18:24:45.271Z,100899.20
2022-07-26T18:27:11.990Z,100898.17
2022-07-26T18:29:38.599Z,100894.16
2022-07-26T18:32:05.587Z,100895.64
2022-07-26T18:34:37.831Z,100897.91
2022-07-26T18:37:05.191Z,100894.83
2022-07-26T18:39:33.257Z,100894.30
2022-07-26T18:42:00.597Z,100899.33
2022-07-26T18:44:27.986Z,100900.08
2022-07-26T18:46:56.490Z,100903.34
2022-07-26T18:49:31.122Z,100907.92
2022-07-26T18:52:02.851Z,100908.46
2022-07-26T18:54:33.166Z,100916.98
2022-07-26T18:57:00.570Z,100916.25
2022-07-26T18:59:27.380Z,100917.67
2022-07-26T19:01:54.027Z,100921.19
2022-07-26T19:04:24.142Z,100919.49
2022-07-26T19:06:51.751Z,100921.98
2022-07-26T19:09:20.084Z,100925.88
2022-07-26T19:11:47.836Z,100931.95
2022-07-26T19:14:16.293Z,100932.14
2022-07-26T19:16:43.550Z,100935.73
2022-07-26T19:19:12.146Z,100939.41
2022-07-26T19:21:44.803Z,100942.92
2022-07-26T19:24:13.281Z,100948.80
2022-07-26T19:26:42.056Z,100950.02
2022-07-26T19:29:13.817Z,100950.58
2022-07-26T19:31:44.721Z,100949.85
2022-07-26T19:34:15.936Z,100955.81
2022-07-26T19:36:43.910Z,100952.41
2022-07-26T19:39:11.887Z,100955.11
2022-07-26T19:41:39.335Z,100957.25
2022-07-26T19:44:06.087Z,100960.23
2022-07-26T19:46:32.905Z,100963.42
2022-07-26T19:49:01.048Z,100963.39
2022-07-26T19:51:30.595Z,100968.00
2022-07-26T19:53:57.138Z,100966.20
2022-07-26T19:56:28.427Z,100970.59
2022-07-26T19:59:01.899Z,100971.34
2022-07-26T20:01:30.766Z,100970.42
2022-07-26T20:03:58.508Z,100966.94
2022-07-26T20:06:27.082Z,100970.06
2022-07-26T20:09:00.271Z,100976.67
2022-07-26T20:11:29.368Z,100975.42
2022-07-26T20:13:56.806Z,100975.91
2022-07-26T20:17:02.949Z,100977.85
2022-07-26T20:19:47.116Z,100978.05
2022-07-26T20:22:17.235Z,100981.89
2022-07-26T20:24:44.779Z,100986.11
2022-07-26T20:27:15.008Z,100989.04
2022-07-26T20:29:41.876Z,100992.00
2022-07-26T20:32:08.497Z,100995.64
2022-07-26T20:34:38.747Z,100998.25
2022-07-26T20:37:10.288Z,101003.02
2022-07-26T20:39:38.343Z,100997.50
2022-07-26T20:42:06.696Z,100990.70
2022-07-26T20:44:36.277Z,100998.52
2022-07-26T20:47:07.447Z,100999.85
2022-07-26T20:49:36.999Z,101008.85
2022-07-26T20:52:04.991Z,101015.79
2022-07-26T20:54:32.330Z,101012.13
2022-07-26T20:56:59.482Z,101012.21
2022-07-26T20:59:35.040Z,101008.17
2022-07-26T21:02:02.224Z,101018.36
2022-07-26T21:04:29.230Z,101022.21
2022-07-26T21:06:56.562Z,101022.29
2022-07-26T21:09:27.041Z,101020.98
2022-07-26T21:11:57.099Z,101027.48
2022-07-26T21:14:24.483Z,101028.57
2022-07-26T21:16:51.745Z,101033.08
2022-07-26T21:19:18.922Z,101034.70
2022-07-26T21:21:46.362Z,101036.10
2022-07-26T21:24:13.429Z,101041.83
2022-07-26T21:26:41.350Z,101046.89
2022-07-26T21:29:08.849Z,101051.67
2022-07-26T21:31:36.643Z,101052.13
2022-07-26T21:34:03.718Z,101059.38
2022-07-26T21:36:30.879Z,101055.34
2022-07-26T21:38:58.394Z,101056.65
2022-07-26T21:41:25.332Z,101057.36
2022-07-26T21:43:52.352Z,101055.23
2022-07-26T21:46:19.338Z,101056.85
2022-07-26T21:48:46.549Z,101058.11
2022-07-26T21:51:13.585Z,101056.45
2022-07-26T21:53:40.373Z,101063.45
2022-07-26T21:56:07.746Z,101065.28
2022-07-26T21:58:36.989Z,101063.66
2022-07-26T22:01:12.875Z,101062.98
2022-07-26T22:03:41.037Z,101060.91
2022-07-26T22:06:09.261Z,101061.98
2022-07-26T22:08:36.809Z,101066.31
2022-07-26T22:11:12.439Z,101073.55
2022-07-26T22:13:40.142Z,101070.52
2022-07-26T22:16:07.479Z,101069.77
2022-07-26T22:18:34.979Z,101070.52
2022-07-26T22:21:02.044Z,101073.34
2022-07-26T22:23:31.938Z,101071.88
2022-07-26T22:26:01.746Z,101070.50
2022-07-26T22:28:29.528Z,101072.06
2022-07-26T22:30:56.984Z,101069.41
2022-07-26T22:33:25.024Z,101077.38
2022-07-26T22:35:52.553Z,101078.70
2022-07-26T22:38:19.433Z,101076.20
2022-07-26T22:40:46.794Z,101081.54
2022-07-26T22:43:14.817Z,101079.12
2022-07-26T22:45:42.251Z,101079.83
2022-07-26T22:48:09.645Z,101078.04
2022-07-26T22:50:39.900Z,101080.13
2022-07-26T22:53:07.043Z,101076.42
2022-07-26T22:55:34.300Z,101081.27
2022-07-26T22:58:01.379Z,101088.63
2022-07-26T23:00:29.032Z,101089.45
2022-07-26T23:02:56.197Z,101084.51
2022-07-26T23:05:27.628Z,101084.59
2022-07-26T23:08:36.668Z,101081.26
2022-07-26T23:10:57.997Z,101080.07
2022-07-26T23:13:25.430Z,101080.90
2022-07-26T23:15:56.741Z,101081.82
2022-07-26T23:18:27.489Z,101084.13
2022-07-26T23:20:54.744Z,101082.85
2022-07-26T23:23:21.751Z,101078.23
2022-07-26T23:25:51.053Z,101078.95
2022-07-26T23:28:35.501Z,101080.93
2022-07-26T23:31:10.737Z,101085.22
2022-07-26T23:33:52.850Z,101094.84
2022-07-26T23:36:22.088Z,101091.01
2022-07-26T23:38:49.016Z,101086.91
2022-07-26T23:41:15.656Z,101087.57
2022-07-26T23:43:42.778Z,101085.64
2022-07-26T23:46:09.664Z,101084.90
2022-07-26T23:48:36.423Z,101081.70
2022-07-26T23:51:07.149Z,101078.23
2022-07-26T23:53:34.195Z,101078.58
2022-07-26T23:56:01.263Z,101082.30
2022-07-26T23:58:28.541Z,101081.84
